sensor_id;sensor_type;location;lat;lon;timestamp;P1;durP1;ratioP1;P2;durP2;ratioP2
23826;SDS011;12094;50.822;4.376;2023-01-15T00:00:29;11.95;;;1.80;;
23826;SDS011;12094;50.822;4.376;2023-01-15T00:02:59;9.00;;;1.58;;
23826;SDS011;12094;50.822;4.376;2023-01-15T00:05:27;15.82;;;1.80;;
23826;SDS011;12094;50.822;4.376;2023-01-15T00:07:54;15.73;;;1.92;;
23826;SDS011;12094;50.822;4.376;2023-01-15T00:10:21;7.68;;;1.55;;
23826;SDS011;12094;50.822;4.376;2023-01-15T00:12:51;11.32;;;1.48;;
23826;SDS011;12094;50.822;4.376;2023-01-15T00:15:19;12.88;;;2.05;;
23826;SDS011;12094;50.822;4.376;2023-01-15T00:17:48;10.52;;;1.52;;
23826;SDS011;12094;50.822;4.376;2023-01-15T00:20:15;13.73;;;2.08;;
23826;SDS011;12094;50.822;4.376;2023-01-15T00:22:44;16.30;;;1.98;;
23826;SDS011;12094;50.822;4.376;2023-01-15T00:25:14;12.02;;;1.50;;
23826;SDS011;12094;50.822;4.376;2023-01-15T00:28:00;15.90;;;1.95;;
23826;SDS011;12094;50.822;4.376;2023-01-15T00:30:28;11.68;;;1.73;;
23826;SDS011;12094;50.822;4.376;2023-01-15T00:32:57;19.00;;;1.90;;
23826;SDS011;12094;50.822;4.376;2023-01-15T00:35:25;13.07;;;1.92;;
23826;SDS011;12094;50.822;4.376;2023-01-15T00:37:53;11.65;;;1.92;;
23826;SDS011;12094;50.822;4.376;2023-01-15T00:40:20;13.05;;;1.98;;
23826;SDS011;12094;50.822;4.376;2023-01-15T00:42:47;22.52;;;2.20;;
23826;SDS011;12094;50.822;4.376;2023-01-15T00:45:23;9.38;;;1.67;;
23826;SDS011;12094;50.822;4.376;2023-01-15T00:47:51;18.30;;;1.52;;
23826;SDS011;12094;50.822;4.376;2023-01-15T00:50:19;13.20;;;2.28;;
23826;SDS011;12094;50.822;4.376;2023-01-15T00:52:46;11.48;;;1.65;;
23826;SDS011;12094;50.822;4.376;2023-01-15T00:55:13;15.25;;;2.20;;
23826;SDS011;12094;50.822;4.376;2023-01-15T00:57:41;14.43;;;1.90;;
23826;SDS011;12094;50.822;4.376;2023-01-15T01:00:11;16.10;;;2.28;;
23826;SDS011;12094;50.822;4.376;2023-01-15T01:02:39;12.50;;;1.67;;
23826;SDS011;12094;50.822;4.376;2023-01-15T01:05:31;14.48;;;1.63;;
23826;SDS011;12094;50.822;4.376;2023-01-15T01:07:58;15.90;;;1.90;;
23826;SDS011;12094;50.822;4.376;2023-01-15T01:10:26;11.85;;;1.63;;
23826;SDS011;12094;50.822;4.376;2023-01-15T01:12:54;11.52;;;1.50;;
23826;SDS011;12094;50.822;4.376;2023-01-15T01:15:26;9.38;;;1.80;;
23826;SDS011;12094;50.822;4.376;2023-01-15T01:17:53;15.00;;;1.88;;
23826;SDS011;12094;50.822;4.376;2023-01-15T01:20:25;15.23;;;2.28;;
23826;SDS011;12094;50.822;4.376;2023-01-15T01:22:53;12.73;;;2.10;;
23826;SDS011;12094;50.822;4.376;2023-01-15T01:25:22;13.77;;;1.60;;
23826;SDS011;12094;50.822;4.376;2023-01-15T01:27:53;12.43;;;1.77;;
23826;SDS011;12094;50.822;4.376;2023-01-15T01:30:20;14.70;;;1.60;;
23826;SDS011;12094;50.822;4.376;2023-01-15T01:32:50;11.75;;;1.45;;
23826;SDS011;12094;50.822;4.376;2023-01-15T01:35:17;9.07;;;1.40;;
23826;SDS011;12094;50.822;4.376;2023-01-15T01:37:48;17.73;;;2.97;;
23826;SDS011;12094;50.822;4.376;2023-01-15T01:40:17;11.88;;;1.85;;
23826;SDS011;12094;50.822;4.376;2023-01-15T01:42:55;14.23;;;1.45;;
23826;SDS011;12094;50.822;4.376;2023-01-15T01:45:26;13.45;;;1.63;;
23826;SDS011;12094;50.822;4.376;2023-01-15T01:48:00;4.85;;;0.70;;
23826;SDS011;12094;50.822;4.376;2023-01-15T01:50:31;16.73;;;2.38;;
23826;SDS011;12094;50.822;4.376;2023-01-15T01:53:06;10.25;;;1.45;;
23826;SDS011;12094;50.822;4.376;2023-01-15T01:55:39;9.77;;;2.03;;
23826;SDS011;12094;50.822;4.376;2023-01-15T01:58:08;12.98;;;1.55;;
23826;SDS011;12094;50.822;4.376;2023-01-15T02:00:41;7.27;;;1.33;;
23826;SDS011;12094;50.822;4.376;2023-01-15T02:03:14;16.48;;;1.70;;
23826;SDS011;12094;50.822;4.376;2023-01-15T02:05:46;12.18;;;1.55;;
23826;SDS011;12094;50.822;4.376;2023-01-15T02:08:20;16.40;;;1.85;;
23826;SDS011;12094;50.822;4.376;2023-01-15T02:10:49;13.75;;;1.42;;
23826;SDS011;12094;50.822;4.376;2023-01-15T02:13:31;18.58;;;2.08;;
23826;SDS011;12094;50.822;4.376;2023-01-15T02:16:23;10.00;;;1.48;;
23826;SDS011;12094;50.822;4.376;2023-01-15T02:19:14;13.85;;;2.13;;
23826;SDS011;12094;50.822;4.376;2023-01-15T02:27:53;12.48;;;2.35;;
23826;SDS011;12094;50.822;4.376;2023-01-15T02:33:03;13.15;;;2.22;;
23826;SDS011;12094;50.822;4.376;2023-01-15T02:35:45;12.57;;;1.70;;
23826;SDS011;12094;50.822;4.376;2023-01-15T02:38:19;11.18;;;1.48;;
23826;SDS011;12094;50.822;4.376;2023-01-15T02:40:53;10.70;;;0.95;;
23826;SDS011;12094;50.822;4.376;2023-01-15T02:43:28;10.88;;;1.33;;
23826;SDS011;12094;50.822;4.376;2023-01-15T02:46:04;10.15;;;1.83;;
23826;SDS011;12094;50.822;4.376;2023-01-15T02:48:35;7.13;;;1.40;;
23826;SDS011;12094;50.822;4.376;2023-01-15T02:51:23;11.00;;;1.75;;
23826;SDS011;12094;50.822;4.376;2023-01-15T02:53:55;15.63;;;1.60;;
23826;SDS011;12094;50.822;4.376;2023-01-15T02:56:29;6.38;;;1.00;;
23826;SDS011;12094;50.822;4.376;2023-01-15T02:59:03;11.75;;;1.23;;
23826;SDS011;12094;50.822;4.376;2023-01-15T03:01:36;8.07;;;1.38;;
23826;SDS011;12094;50.822;4.376;2023-01-15T03:04:11;9.32;;;1.55;;
23826;SDS011;12094;50.822;4.376;2023-01-15T03:07:16;13.80;;;1.80;;
23826;SDS011;12094;50.822;4.376;2023-01-15T03:09:51;12.18;;;1.75;;
23826;SDS011;12094;50.822;4.376;2023-01-15T03:12:34;15.40;;;1.87;;
23826;SDS011;12094;50.822;4.376;2023-01-15T03:15:45;7.60;;;1.02;;
23826;SDS011;12094;50.822;4.376;2023-01-15T03:19:02;12.63;;;1.95;;
23826;SDS011;12094;50.822;4.376;2023-01-15T03:21:58;15.25;;;1.38;;
23826;SDS011;12094;50.822;4.376;2023-01-15T03:29:57;13.10;;;1.60;;
23826;SDS011;12094;50.822;4.376;2023-01-15T03:32:32;15.57;;;1.63;;
23826;SDS011;12094;50.822;4.376;2023-01-15T03:35:03;10.32;;;1.63;;
23826;SDS011;12094;50.822;4.376;2023-01-15T03:37:39;7.45;;;1.08;;
23826;SDS011;12094;50.822;4.376;2023-01-15T03:40:10;12.02;;;1.30;;
23826;SDS011;12094;50.822;4.376;2023-01-15T03:42:58;6.15;;;1.48;;
23826;SDS011;12094;50.822;4.376;2023-01-15T03:45:57;9.00;;;1.42;;
23826;SDS011;12094;50.822;4.376;2023-01-15T03:51:13;12.80;;;0.93;;
23826;SDS011;12094;50.822;4.376;2023-01-15T03:57:26;8.77;;;1.58;;
23826;SDS011;12094;50.822;4.376;2023-01-15T03:59:31;9.43;;;1.15;;
23826;SDS011;12094;50.822;4.376;2023-01-15T04:02:04;4.97;;;1.13;;
23826;SDS011;12094;50.822;4.376;2023-01-15T04:07:09;6.45;;;1.38;;
23826;SDS011;12094;50.822;4.376;2023-01-15T04:09:44;10.02;;;1.13;;
23826;SDS011;12094;50.822;4.376;2023-01-15T04:12:14;8.45;;;1.13;;
23826;SDS011;12094;50.822;4.376;2023-01-15T04:14:46;9.90;;;1.33;;
23826;SDS011;12094;50.822;4.376;2023-01-15T04:17:16;7.18;;;0.95;;
23826;SDS011;12094;50.822;4.376;2023-01-15T04:19:44;9.55;;;1.17;;
23826;SDS011;12094;50.822;4.376;2023-01-15T04:24:45;9.82;;;1.23;;
23826;SDS011;12094;50.822;4.376;2023-01-15T04:27:16;7.55;;;1.10;;
23826;SDS011;12094;50.822;4.376;2023-01-15T04:29:44;5.75;;;0.80;;
23826;SDS011;12094;50.822;4.376;2023-01-15T04:32:13;6.13;;;1.10;;
23826;SDS011;12094;50.822;4.376;2023-01-15T04:34:41;8.43;;;1.05;;
23826;SDS011;12094;50.822;4.376;2023-01-15T04:37:08;7.20;;;0.85;;
23826;SDS011;12094;50.822;4.376;2023-01-15T04:39:36;12.70;;;1.40;;
23826;SDS011;12094;50.822;4.376;2023-01-15T04:45:41;8.88;;;0.98;;
23826;SDS011;12094;50.822;4.376;2023-01-15T04:48:22;3.17;;;0.70;;
23826;SDS011;12094;50.822;4.376;2023-01-15T04:50:51;7.18;;;1.08;;
23826;SDS011;12094;50.822;4.376;2023-01-15T04:53:18;7.65;;;1.15;;
23826;SDS011;12094;50.822;4.376;2023-01-15T04:55:46;8.30;;;0.65;;
23826;SDS011;12094;50.822;4.376;2023-01-15T04:58:17;6.93;;;0.93;;
23826;SDS011;12094;50.822;4.376;2023-01-15T05:00:44;6.65;;;0.90;;
23826;SDS011;12094;50.822;4.376;2023-01-15T05:03:13;8.02;;;1.10;;
23826;SDS011;12094;50.822;4.376;2023-01-15T05:05:40;8.15;;;1.00;;
23826;SDS011;12094;50.822;4.376;2023-01-15T05:08:14;7.18;;;0.90;;
23826;SDS011;12094;50.822;4.376;2023-01-15T05:10:46;4.57;;;1.02;;
23826;SDS011;12094;50.822;4.376;2023-01-15T05:13:17;5.85;;;0.60;;
23826;SDS011;12094;50.822;4.376;2023-01-15T05:15:47;7.57;;;0.98;;
23826;SDS011;12094;50.822;4.376;2023-01-15T05:20:48;8.27;;;0.75;;
23826;SDS011;12094;50.822;4.376;2023-01-15T05:23:19;11.80;;;1.33;;
23826;SDS011;12094;50.822;4.376;2023-01-15T05:25:47;6.45;;;0.85;;
23826;SDS011;12094;50.822;4.376;2023-01-15T05:28:16;5.97;;;0.60;;
23826;SDS011;12094;50.822;4.376;2023-01-15T05:30:45;7.90;;;1.02;;
23826;SDS011;12094;50.822;4.376;2023-01-15T05:33:13;10.48;;;1.33;;
23826;SDS011;12094;50.822;4.376;2023-01-15T05:35:40;4.90;;;0.75;;
23826;SDS011;12094;50.822;4.376;2023-01-15T05:38:09;10.13;;;1.10;;
23826;SDS011;12094;50.822;4.376;2023-01-15T05:40:39;4.25;;;0.70;;
23826;SDS011;12094;50.822;4.376;2023-01-15T05:43:10;3.47;;;0.60;;
23826;SDS011;12094;50.822;4.376;2023-01-15T05:45:37;6.53;;;0.68;;
23826;SDS011;12094;50.822;4.376;2023-01-15T05:48:05;8.68;;;1.27;;
23826;SDS011;12094;50.822;4.376;2023-01-15T05:50:34;5.63;;;0.80;;
23826;SDS011;12094;50.822;4.376;2023-01-15T05:53:03;5.72;;;1.02;;
23826;SDS011;12094;50.822;4.376;2023-01-15T05:55:35;5.72;;;0.68;;
23826;SDS011;12094;50.822;4.376;2023-01-15T05:58:05;7.05;;;0.70;;
23826;SDS011;12094;50.822;4.376;2023-01-15T06:00:35;3.40;;;0.80;;
23826;SDS011;12094;50.822;4.376;2023-01-15T06:03:03;6.75;;;1.00;;
23826;SDS011;12094;50.822;4.376;2023-01-15T06:05:33;6.03;;;1.00;;
23826;SDS011;12094;50.822;4.376;2023-01-15T06:08:16;6.20;;;0.73;;
23826;SDS011;12094;50.822;4.376;2023-01-15T06:10:47;6.30;;;0.90;;
23826;SDS011;12094;50.822;4.376;2023-01-15T06:13:15;4.32;;;0.80;;
23826;SDS011;12094;50.822;4.376;2023-01-15T06:15:43;7.18;;;0.80;;
23826;SDS011;12094;50.822;4.376;2023-01-15T06:18:11;4.40;;;0.40;;
23826;SDS011;12094;50.822;4.376;2023-01-15T06:20:42;7.22;;;0.43;;
23826;SDS011;12094;50.822;4.376;2023-01-15T06:23:28;4.88;;;0.63;;
23826;SDS011;12094;50.822;4.376;2023-01-15T06:26:15;3.92;;;0.40;;
23826;SDS011;12094;50.822;4.376;2023-01-15T06:28:49;3.22;;;0.60;;
23826;SDS011;12094;50.822;4.376;2023-01-15T06:31:23;4.20;;;0.85;;
23826;SDS011;12094;50.822;4.376;2023-01-15T06:33:54;5.37;;;0.83;;
23826;SDS011;12094;50.822;4.376;2023-01-15T06:36:22;7.95;;;1.08;;
23826;SDS011;12094;50.822;4.376;2023-01-15T06:38:59;8.65;;;0.85;;
23826;SDS011;12094;50.822;4.376;2023-01-15T06:41:30;9.02;;;1.10;;
23826;SDS011;12094;50.822;4.376;2023-01-15T06:44:17;6.68;;;0.90;;
23826;SDS011;12094;50.822;4.376;2023-01-15T06:47:10;10.23;;;0.63;;
23826;SDS011;12094;50.822;4.376;2023-01-15T06:49:54;5.53;;;0.90;;
23826;SDS011;12094;50.822;4.376;2023-01-15T06:52:25;7.88;;;1.27;;
23826;SDS011;12094;50.822;4.376;2023-01-15T06:54:54;7.97;;;0.77;;
23826;SDS011;12094;50.822;4.376;2023-01-15T06:57:24;7.05;;;1.13;;
23826;SDS011;12094;50.822;4.376;2023-01-15T06:59:51;8.98;;;1.20;;
23826;SDS011;12094;50.822;4.376;2023-01-15T07:02:19;11.45;;;1.40;;
23826;SDS011;12094;50.822;4.376;2023-01-15T07:07:20;8.82;;;1.17;;
23826;SDS011;12094;50.822;4.376;2023-01-15T07:09:53;10.50;;;1.23;;
23826;SDS011;12094;50.822;4.376;2023-01-15T07:14:52;4.97;;;0.70;;
23826;SDS011;12094;50.822;4.376;2023-01-15T07:17:20;7.22;;;1.00;;
23826;SDS011;12094;50.822;4.376;2023-01-15T07:19:47;7.00;;;1.10;;
23826;SDS011;12094;50.822;4.376;2023-01-15T07:22:15;11.05;;;1.27;;
23826;SDS011;12094;50.822;4.376;2023-01-15T07:24:44;12.25;;;1.88;;
23826;SDS011;12094;50.822;4.376;2023-01-15T07:27:11;4.00;;;1.20;;
23826;SDS011;12094;50.822;4.376;2023-01-15T07:29:40;6.18;;;1.13;;
23826;SDS011;12094;50.822;4.376;2023-01-15T07:32:08;11.57;;;1.50;;
23826;SDS011;12094;50.822;4.376;2023-01-15T07:34:36;16.90;;;1.38;;
23826;SDS011;12094;50.822;4.376;2023-01-15T07:37:03;10.38;;;1.08;;
23826;SDS011;12094;50.822;4.376;2023-01-15T07:39:30;6.82;;;0.95;;
23826;SDS011;12094;50.822;4.376;2023-01-15T07:42:00;6.38;;;0.93;;
23826;SDS011;12094;50.822;4.376;2023-01-15T07:44:48;6.00;;;0.90;;
23826;SDS011;12094;50.822;4.376;2023-01-15T07:47:35;13.95;;;1.80;;
23826;SDS011;12094;50.822;4.376;2023-01-15T07:50:21;8.25;;;1.10;;
23826;SDS011;12094;50.822;4.376;2023-01-15T07:52:49;10.63;;;1.10;;
23826;SDS011;12094;50.822;4.376;2023-01-15T07:55:19;12.23;;;1.23;;
23826;SDS011;12094;50.822;4.376;2023-01-15T07:57:47;7.22;;;0.90;;
23826;SDS011;12094;50.822;4.376;2023-01-15T08:00:18;6.47;;;0.75;;
23826;SDS011;12094;50.822;4.376;2023-01-15T08:02:48;9.50;;;1.38;;
23826;SDS011;12094;50.822;4.376;2023-01-15T08:05:16;9.48;;;1.30;;
23826;SDS011;12094;50.822;4.376;2023-01-15T08:07:46;9.63;;;1.17;;
23826;SDS011;12094;50.822;4.376;2023-01-15T08:10:16;9.48;;;1.45;;
23826;SDS011;12094;50.822;4.376;2023-01-15T08:12:44;11.23;;;1.05;;
23826;SDS011;12094;50.822;4.376;2023-01-15T08:15:37;12.73;;;1.35;;
23826;SDS011;12094;50.822;4.376;2023-01-15T08:18:08;12.45;;;1.10;;
23826;SDS011;12094;50.822;4.376;2023-01-15T08:20:35;7.82;;;1.33;;
23826;SDS011;12094;50.822;4.376;2023-01-15T08:23:05;17.08;;;1.50;;
23826;SDS011;12094;50.822;4.376;2023-01-15T08:25:32;8.00;;;1.02;;
23826;SDS011;12094;50.822;4.376;2023-01-15T08:28:02;11.10;;;1.88;;
23826;SDS011;12094;50.822;4.376;2023-01-15T08:30:31;3.08;;;0.70;;
23826;SDS011;12094;50.822;4.376;2023-01-15T08:32:58;3.30;;;0.77;;
23826;SDS011;12094;50.822;4.376;2023-01-15T08:35:29;9.95;;;1.80;;
23826;SDS011;12094;50.822;4.376;2023-01-15T08:37:56;8.63;;;1.38;;
23826;SDS011;12094;50.822;4.376;2023-01-15T08:40:27;7.82;;;0.93;;
23826;SDS011;12094;50.822;4.376;2023-01-15T08:42:55;6.57;;;0.75;;
23826;SDS011;12094;50.822;4.376;2023-01-15T08:45:25;12.27;;;1.35;;
23826;SDS011;12094;50.822;4.376;2023-01-15T08:47:58;3.42;;;0.98;;
23826;SDS011;12094;50.822;4.376;2023-01-15T08:50:30;5.30;;;0.93;;
23826;SDS011;12094;50.822;4.376;2023-01-15T08:53:01;10.05;;;1.13;;
23826;SDS011;12094;50.822;4.376;2023-01-15T08:55:29;7.03;;;0.70;;
23826;SDS011;12094;50.822;4.376;2023-01-15T08:57:59;7.00;;;1.50;;
23826;SDS011;12094;50.822;4.376;2023-01-15T09:00:29;11.70;;;1.02;;
23826;SDS011;12094;50.822;4.376;2023-01-15T09:03:01;8.75;;;1.48;;
23826;SDS011;12094;50.822;4.376;2023-01-15T09:05:28;12.10;;;1.30;;
23826;SDS011;12094;50.822;4.376;2023-01-15T09:08:03;5.55;;;1.00;;
23826;SDS011;12094;50.822;4.376;2023-01-15T09:13:05;5.35;;;0.82;;
23826;SDS011;12094;50.822;4.376;2023-01-15T09:23:01;4.30;;;1.15;;
23826;SDS011;12094;50.822;4.376;2023-01-15T09:25:28;7.88;;;1.40;;
23826;SDS011;12094;50.822;4.376;2023-01-15T09:27:58;11.95;;;1.38;;
23826;SDS011;12094;50.822;4.376;2023-01-15T09:30:25;12.90;;;1.48;;
23826;SDS011;12094;50.822;4.376;2023-01-15T09:35:50;3.42;;;0.63;;
23826;SDS011;12094;50.822;4.376;2023-01-15T09:38:18;15.20;;;1.77;;
23826;SDS011;12094;50.822;4.376;2023-01-15T09:40:56;9.32;;;1.10;;
23826;SDS011;12094;50.822;4.376;2023-01-15T09:46:19;9.10;;;1.30;;
23826;SDS011;12094;50.822;4.376;2023-01-15T09:49:00;4.78;;;1.05;;
23826;SDS011;12094;50.822;4.376;2023-01-15T09:51:51;4.63;;;0.68;;
23826;SDS011;12094;50.822;4.376;2023-01-15T09:57:23;9.07;;;1.08;;
23826;SDS011;12094;50.822;4.376;2023-01-15T09:59:51;5.50;;;0.90;;
23826;SDS011;12094;50.822;4.376;2023-01-15T10:02:48;5.13;;;0.68;;
23826;SDS011;12094;50.822;4.376;2023-01-15T10:05:30;4.43;;;1.00;;
23826;SDS011;12094;50.822;4.376;2023-01-15T10:10:57;7.20;;;1.05;;
23826;SDS011;12094;50.822;4.376;2023-01-15T10:13:44;6.47;;;0.80;;
23826;SDS011;12094;50.822;4.376;2023-01-15T10:16:18;7.68;;;0.80;;
23826;SDS011;12094;50.822;4.376;2023-01-15T10:18:48;5.30;;;1.27;;
23826;SDS011;12094;50.822;4.376;2023-01-15T10:24:03;6.40;;;1.10;;
23826;SDS011;12094;50.822;4.376;2023-01-15T10:26:38;7.78;;;1.52;;
23826;SDS011;12094;50.822;4.376;2023-01-15T10:45:58;6.32;;;1.08;;
23826;SDS011;12094;50.822;4.376;2023-01-15T10:48:33;5.60;;;0.93;;
23826;SDS011;12094;50.822;4.376;2023-01-15T10:51:16;6.53;;;1.30;;
23826;SDS011;12094;50.822;4.376;2023-01-15T10:54:00;2.78;;;0.82;;
23826;SDS011;12094;50.822;4.376;2023-01-15T10:56:34;5.10;;;0.70;;
23826;SDS011;12094;50.822;4.376;2023-01-15T11:01:58;8.80;;;1.13;;
23826;SDS011;12094;50.822;4.376;2023-01-15T11:04:30;4.70;;;1.00;;
23826;SDS011;12094;50.822;4.376;2023-01-15T11:06:58;6.85;;;1.20;;
23826;SDS011;12094;50.822;4.376;2023-01-15T11:09:26;4.88;;;0.80;;
23826;SDS011;12094;50.822;4.376;2023-01-15T11:15:23;6.95;;;1.60;;
23826;SDS011;12094;50.822;4.376;2023-01-15T11:18:15;5.32;;;0.75;;
23826;SDS011;12094;50.822;4.376;2023-01-15T11:21:12;4.68;;;0.88;;
23826;SDS011;12094;50.822;4.376;2023-01-15T11:23:44;2.92;;;0.88;;
23826;SDS011;12094;50.822;4.376;2023-01-15T11:26:22;4.18;;;0.98;;
23826;SDS011;12094;50.822;4.376;2023-01-15T11:28:54;4.35;;;1.10;;
23826;SDS011;12094;50.822;4.376;2023-01-15T11:31:34;6.50;;;1.15;;
23826;SDS011;12094;50.822;4.376;2023-01-15T11:34:04;7.65;;;1.48;;
23826;SDS011;12094;50.822;4.376;2023-01-15T11:36:33;11.88;;;1.70;;
23826;SDS011;12094;50.822;4.376;2023-01-15T11:39:01;7.40;;;1.13;;
23826;SDS011;12094;50.822;4.376;2023-01-15T11:41:29;7.22;;;1.10;;
23826;SDS011;12094;50.822;4.376;2023-01-15T11:44:17;4.35;;;0.70;;
23826;SDS011;12094;50.822;4.376;2023-01-15T11:47:09;4.45;;;0.90;;
23826;SDS011;12094;50.822;4.376;2023-01-15T11:49:56;4.95;;;1.10;;
23826;SDS011;12094;50.822;4.376;2023-01-15T11:52:45;4.25;;;0.82;;
23826;SDS011;12094;50.822;4.376;2023-01-15T11:55:17;8.90;;;1.10;;
23826;SDS011;12094;50.822;4.376;2023-01-15T11:57:48;5.30;;;0.90;;
23826;SDS011;12094;50.822;4.376;2023-01-15T12:02:56;2.78;;;1.02;;
23826;SDS011;12094;50.822;4.376;2023-01-15T12:05:30;9.63;;;1.83;;
23826;SDS011;12094;50.822;4.376;2023-01-15T12:08:00;5.53;;;1.13;;
23826;SDS011;12094;50.822;4.376;2023-01-15T12:33:19;4.97;;;0.77;;
23826;SDS011;12094;50.822;4.376;2023-01-15T12:36:05;5.20;;;1.05;;
23826;SDS011;12094;50.822;4.376;2023-01-15T12:39:02;8.85;;;1.45;;
23826;SDS011;12094;50.822;4.376;2023-01-15T12:41:38;8.00;;;1.45;;
23826;SDS011;12094;50.822;4.376;2023-01-15T12:48:05;6.38;;;1.42;;
23826;SDS011;12094;50.822;4.376;2023-01-15T12:53:12;5.07;;;0.80;;
23826;SDS011;12094;50.822;4.376;2023-01-15T12:56:00;5.78;;;1.50;;
23826;SDS011;12094;50.822;4.376;2023-01-15T12:58:39;13.98;;;2.60;;
23826;SDS011;12094;50.822;4.376;2023-01-15T13:04:21;3.85;;;0.95;;
23826;SDS011;12094;50.822;4.376;2023-01-15T13:07:04;4.43;;;1.25;;
23826;SDS011;12094;50.822;4.376;2023-01-15T13:09:39;2.22;;;1.17;;
23826;SDS011;12094;50.822;4.376;2023-01-15T13:12:13;3.60;;;0.90;;
23826;SDS011;12094;50.822;4.376;2023-01-15T13:14:43;7.55;;;0.85;;
23826;SDS011;12094;50.822;4.376;2023-01-15T13:34:23;4.68;;;1.05;;
23826;SDS011;12094;50.822;4.376;2023-01-15T13:36:52;4.85;;;0.90;;
23826;SDS011;12094;50.822;4.376;2023-01-15T13:39:22;4.50;;;1.10;;
23826;SDS011;12094;50.822;4.376;2023-01-15T13:41:53;1.98;;;0.65;;
23826;SDS011;12094;50.822;4.376;2023-01-15T13:44:50;5.10;;;0.90;;
23826;SDS011;12094;50.822;4.376;2023-01-15T13:47:24;5.03;;;0.80;;
23826;SDS011;12094;50.822;4.376;2023-01-15T13:50:25;7.88;;;0.90;;
23826;SDS011;12094;50.822;4.376;2023-01-15T13:53:27;4.82;;;0.85;;
23826;SDS011;12094;50.822;4.376;2023-01-15T13:55:51;5.22;;;1.10;;
23826;SDS011;12094;50.822;4.376;2023-01-15T13:58:23;3.22;;;0.77;;
23826;SDS011;12094;50.822;4.376;2023-01-15T14:11:46;5.05;;;0.88;;
23826;SDS011;12094;50.822;4.376;2023-01-15T14:17:57;4.80;;;1.30;;
23826;SDS011;12094;50.822;4.376;2023-01-15T14:32:28;5.65;;;1.13;;
23826;SDS011;12094;50.822;4.376;2023-01-15T14:35:17;10.27;;;1.30;;
23826;SDS011;12094;50.822;4.376;2023-01-15T14:42:52;7.72;;;1.27;;
23826;SDS011;12094;50.822;4.376;2023-01-15T14:45:37;5.82;;;1.02;;
23826;SDS011;12094;50.822;4.376;2023-01-15T14:50:47;8.18;;;1.13;;
23826;SDS011;12094;50.822;4.376;2023-01-15T14:55:55;4.57;;;0.90;;
23826;SDS011;12094;50.822;4.376;2023-01-15T14:58:44;4.90;;;1.00;;
23826;SDS011;12094;50.822;4.376;2023-01-15T15:09:37;5.15;;;1.15;;
23826;SDS011;12094;50.822;4.376;2023-01-15T15:26:29;2.72;;;0.63;;
23826;SDS011;12094;50.822;4.376;2023-01-15T15:29:05;4.55;;;0.98;;
23826;SDS011;12094;50.822;4.376;2023-01-15T15:31:52;6.60;;;1.30;;
23826;SDS011;12094;50.822;4.376;2023-01-15T15:37:13;6.20;;;1.30;;
23826;SDS011;12094;50.822;4.376;2023-01-15T15:42:49;2.35;;;1.00;;
23826;SDS011;12094;50.822;4.376;2023-01-15T15:46:01;1.70;;;1.00;;
23826;SDS011;12094;50.822;4.376;2023-01-15T15:49:08;10.23;;;1.60;;
23826;SDS011;12094;50.822;4.376;2023-01-15T15:51:51;3.55;;;1.20;;
23826;SDS011;12094;50.822;4.376;2023-01-15T15:54:25;4.70;;;1.30;;
23826;SDS011;12094;50.822;4.376;2023-01-15T16:02:37;4.32;;;1.38;;
23826;SDS011;12094;50.822;4.376;2023-01-15T16:05:21;7.03;;;1.17;;
23826;SDS011;12094;50.822;4.376;2023-01-15T16:07:53;6.13;;;1.50;;
23826;SDS011;12094;50.822;4.376;2023-01-15T16:10:30;4.82;;;1.05;;
23826;SDS011;12094;50.822;4.376;2023-01-15T16:13:05;8.20;;;1.60;;
23826;SDS011;12094;50.822;4.376;2023-01-15T16:15:44;6.97;;;1.45;;
23826;SDS011;12094;50.822;4.376;2023-01-15T16:18:21;6.07;;;1.27;;
23826;SDS011;12094;50.822;4.376;2023-01-15T16:20:56;4.88;;;1.33;;
23826;SDS011;12094;50.822;4.376;2023-01-15T16:26:35;5.45;;;1.63;;
23826;SDS011;12094;50.822;4.376;2023-01-15T16:29:15;13.10;;;2.30;;
23826;SDS011;12094;50.822;4.376;2023-01-15T16:31:55;5.90;;;2.13;;
23826;SDS011;12094;50.822;4.376;2023-01-15T16:34:30;5.72;;;1.90;;
23826;SDS011;12094;50.822;4.376;2023-01-15T16:37:15;12.45;;;2.40;;
23826;SDS011;12094;50.822;4.376;2023-01-15T16:39:53;6.70;;;2.10;;
23826;SDS011;12094;50.822;4.376;2023-01-15T16:42:33;16.33;;;3.20;;
23826;SDS011;12094;50.822;4.376;2023-01-15T16:48:08;10.23;;;4.30;;
23826;SDS011;12094;50.822;4.376;2023-01-15T16:50:37;10.80;;;3.30;;
23826;SDS011;12094;50.822;4.376;2023-01-15T16:53:31;10.80;;;3.58;;
23826;SDS011;12094;50.822;4.376;2023-01-15T16:56:24;7.07;;;3.00;;
23826;SDS011;12094;50.822;4.376;2023-01-15T17:02:02;9.70;;;4.63;;
23826;SDS011;12094;50.822;4.376;2023-01-15T17:04:41;9.27;;;2.95;;
23826;SDS011;12094;50.822;4.376;2023-01-15T17:09:44;7.60;;;2.22;;
23826;SDS011;12094;50.822;4.376;2023-01-15T17:20:28;8.40;;;4.18;;
23826;SDS011;12094;50.822;4.376;2023-01-15T17:23:22;7.53;;;2.97;;
23826;SDS011;12094;50.822;4.376;2023-01-15T17:25:57;8.30;;;3.10;;
23826;SDS011;12094;50.822;4.376;2023-01-15T17:28:27;12.23;;;2.45;;
23826;SDS011;12094;50.822;4.376;2023-01-15T17:30:57;9.70;;;2.40;;
23826;SDS011;12094;50.822;4.376;2023-01-15T17:33:30;9.70;;;2.33;;
23826;SDS011;12094;50.822;4.376;2023-01-15T17:35:57;8.20;;;2.42;;
23826;SDS011;12094;50.822;4.376;2023-01-15T17:38:39;7.78;;;2.08;;
23826;SDS011;12094;50.822;4.376;2023-01-15T17:41:12;13.75;;;2.65;;
23826;SDS011;12094;50.822;4.376;2023-01-15T17:43:42;8.77;;;3.20;;
23826;SDS011;12094;50.822;4.376;2023-01-15T17:46:10;16.15;;;3.33;;
23826;SDS011;12094;50.822;4.376;2023-01-15T17:48:37;9.30;;;3.10;;
23826;SDS011;12094;50.822;4.376;2023-01-15T17:51:08;8.48;;;2.50;;
23826;SDS011;12094;50.822;4.376;2023-01-15T17:54:15;15.68;;;2.33;;
23826;SDS011;12094;50.822;4.376;2023-01-15T17:59:56;11.90;;;2.85;;
23826;SDS011;12094;50.822;4.376;2023-01-15T18:05:38;8.18;;;2.50;;
23826;SDS011;12094;50.822;4.376;2023-01-15T18:08:08;9.90;;;2.37;;
23826;SDS011;12094;50.822;4.376;2023-01-15T18:10:39;8.30;;;2.05;;
23826;SDS011;12094;50.822;4.376;2023-01-15T18:13:09;15.00;;;2.58;;
23826;SDS011;12094;50.822;4.376;2023-01-15T18:15:41;13.17;;;2.40;;
23826;SDS011;12094;50.822;4.376;2023-01-15T18:18:12;11.32;;;2.08;;
23826;SDS011;12094;50.822;4.376;2023-01-15T18:20:45;8.55;;;1.80;;
23826;SDS011;12094;50.822;4.376;2023-01-15T18:23:12;12.30;;;1.67;;
23826;SDS011;12094;50.822;4.376;2023-01-15T18:25:42;13.60;;;2.25;;
23826;SDS011;12094;50.822;4.376;2023-01-15T18:28:23;10.85;;;2.28;;
23826;SDS011;12094;50.822;4.376;2023-01-15T18:30:51;9.50;;;1.35;;
23826;SDS011;12094;50.822;4.376;2023-01-15T18:33:20;11.23;;;2.28;;
23826;SDS011;12094;50.822;4.376;2023-01-15T18:36:22;10.20;;;1.88;;
23826;SDS011;12094;50.822;4.376;2023-01-15T18:38:42;9.27;;;2.13;;
23826;SDS011;12094;50.822;4.376;2023-01-15T18:41:13;8.77;;;2.30;;
23826;SDS011;12094;50.822;4.376;2023-01-15T18:44:15;9.25;;;1.77;;
23826;SDS011;12094;50.822;4.376;2023-01-15T18:47:05;7.53;;;1.50;;
23826;SDS011;12094;50.822;4.376;2023-01-15T18:49:39;8.98;;;1.45;;
23826;SDS011;12094;50.822;4.376;2023-01-15T18:52:09;5.20;;;1.52;;
23826;SDS011;12094;50.822;4.376;2023-01-15T18:54:57;10.25;;;1.77;;
23826;SDS011;12094;50.822;4.376;2023-01-15T18:57:27;14.23;;;2.15;;
23826;SDS011;12094;50.822;4.376;2023-01-15T18:59:58;12.25;;;2.08;;
23826;SDS011;12094;50.822;4.376;2023-01-15T19:02:26;10.07;;;1.90;;
23826;SDS011;12094;50.822;4.376;2023-01-15T19:04:54;5.60;;;1.42;;
23826;SDS011;12094;50.822;4.376;2023-01-15T19:07:26;8.07;;;2.03;;
23826;SDS011;12094;50.822;4.376;2023-01-15T19:10:02;10.52;;;1.95;;
23826;SDS011;12094;50.822;4.376;2023-01-15T19:12:34;9.55;;;2.45;;
23826;SDS011;12094;50.822;4.376;2023-01-15T19:15:15;8.77;;;2.38;;
23826;SDS011;12094;50.822;4.376;2023-01-15T19:18:18;4.43;;;1.35;;